sensor_id;sensor_type;location;lat;lon;timestamp;P1;durP1;ratioP1;P2;durP2;ratioP2
57337;SDS011;43173;50.980;18.204;2023-07-02T00:01:43;18.50;;;12.80;;
57337;SDS011;43173;50.980;18.204;2023-07-02T00:04:09;22.10;;;14.20;;
57337;SDS011;43173;50.980;18.204;2023-07-02T00:06:35;22.70;;;13.50;;
57337;SDS011;43173;50.980;18.204;2023-07-02T00:09:11;20.40;;;13.60;;
57337;SDS011;43173;50.980;18.204;2023-07-02T00:11:38;21.30;;;13.30;;
57337;SDS011;43173;50.980;18.204;2023-07-02T00:14:05;20.40;;;14.00;;
57337;SDS011;43173;50.980;18.204;2023-07-02T00:16:32;18.70;;;12.80;;
57337;SDS011;43173;50.980;18.204;2023-07-02T00:18:58;22.60;;;13.70;;
57337;SDS011;43173;50.980;18.204;2023-07-02T00:21:25;19.90;;;12.80;;
57337;SDS011;43173;50.980;18.204;2023-07-02T00:23:54;19.70;;;12.90;;
57337;SDS011;43173;50.980;18.204;2023-07-02T00:26:23;20.30;;;13.00;;
57337;SDS011;43173;50.980;18.204;2023-07-02T00:28:50;18.30;;;12.80;;
57337;SDS011;43173;50.980;18.204;2023-07-02T00:31:16;20.60;;;12.60;;
57337;SDS011;43173;50.980;18.204;2023-07-02T00:33:43;21.00;;;11.80;;
57337;SDS011;43173;50.980;18.204;2023-07-02T00:36:08;19.30;;;12.20;;
57337;SDS011;43173;50.980;18.204;2023-07-02T00:38:44;18.20;;;11.90;;
57337;SDS011;43173;50.980;18.204;2023-07-02T00:41:10;21.80;;;12.10;;
57337;SDS011;43173;50.980;18.204;2023-07-02T00:43:36;17.70;;;12.00;;
57337;SDS011;43173;50.980;18.204;2023-07-02T00:46:18;20.10;;;11.90;;
57337;SDS011;43173;50.980;18.204;2023-07-02T00:48:48;20.50;;;12.20;;
57337;SDS011;43173;50.980;18.204;2023-07-02T00:51:21;17.90;;;11.40;;
57337;SDS011;43173;50.980;18.204;2023-07-02T00:53:49;21.50;;;11.40;;
57337;SDS011;43173;50.980;18.204;2023-07-02T00:56:16;21.70;;;11.40;;
57337;SDS011;43173;50.980;18.204;2023-07-02T00:58:43;21.50;;;10.90;;
57337;SDS011;43173;50.980;18.204;2023-07-02T01:01:13;18.10;;;11.40;;
57337;SDS011;43173;50.980;18.204;2023-07-02T01:03:49;15.10;;;10.80;;
57337;SDS011;43173;50.980;18.204;2023-07-02T01:06:19;19.10;;;10.80;;
57337;SDS011;43173;50.980;18.204;2023-07-02T01:08:54;15.50;;;10.60;;
57337;SDS011;43173;50.980;18.204;2023-07-02T01:11:22;16.90;;;10.40;;
57337;SDS011;43173;50.980;18.204;2023-07-02T01:13:51;15.00;;;10.00;;
57337;SDS011;43173;50.980;18.204;2023-07-02T01:16:19;16.50;;;10.20;;
57337;SDS011;43173;50.980;18.204;2023-07-02T01:18:45;16.50;;;10.10;;
57337;SDS011;43173;50.980;18.204;2023-07-02T01:21:11;19.40;;;10.80;;
57337;SDS011;43173;50.980;18.204;2023-07-02T01:23:36;16.70;;;9.20;;
57337;SDS011;43173;50.980;18.204;2023-07-02T01:26:02;16.60;;;9.20;;
57337;SDS011;43173;50.980;18.204;2023-07-02T01:28:34;19.80;;;10.00;;
57337;SDS011;43173;50.980;18.204;2023-07-02T01:31:03;16.10;;;10.20;;
57337;SDS011;43173;50.980;18.204;2023-07-02T01:33:29;16.90;;;9.50;;
57337;SDS011;43173;50.980;18.204;2023-07-02T01:35:55;15.60;;;8.80;;
57337;SDS011;43173;50.980;18.204;2023-07-02T01:38:20;15.10;;;9.00;;
57337;SDS011;43173;50.980;18.204;2023-07-02T01:40:47;15.70;;;8.90;;
57337;SDS011;43173;50.980;18.204;2023-07-02T01:43:13;17.60;;;8.80;;
57337;SDS011;43173;50.980;18.204;2023-07-02T01:45:40;15.80;;;8.90;;
57337;SDS011;43173;50.980;18.204;2023-07-02T01:48:07;13.80;;;9.10;;
57337;SDS011;43173;50.980;18.204;2023-07-02T01:50:33;14.00;;;9.30;;
57337;SDS011;43173;50.980;18.204;2023-07-02T01:52:59;12.70;;;9.10;;
57337;SDS011;43173;50.980;18.204;2023-07-02T01:55:25;16.50;;;9.10;;
57337;SDS011;43173;50.980;18.204;2023-07-02T01:57:50;16.40;;;9.30;;
57337;SDS011;43173;50.980;18.204;2023-07-02T02:00:16;13.80;;;8.70;;
57337;SDS011;43173;50.980;18.204;2023-07-02T02:02:43;12.60;;;8.50;;
57337;SDS011;43173;50.980;18.204;2023-07-02T02:05:09;14.00;;;8.60;;
57337;SDS011;43173;50.980;18.204;2023-07-02T02:07:38;14.60;;;8.00;;
57337;SDS011;43173;50.980;18.204;2023-07-02T02:10:03;16.10;;;9.30;;
57337;SDS011;43173;50.980;18.204;2023-07-02T02:12:29;12.40;;;8.30;;
57337;SDS011;43173;50.980;18.204;2023-07-02T02:14:56;11.80;;;8.50;;
57337;SDS011;43173;50.980;18.204;2023-07-02T02:17:22;10.60;;;7.90;;
57337;SDS011;43173;50.980;18.204;2023-07-02T02:19:50;12.50;;;8.20;;
57337;SDS011;43173;50.980;18.204;2023-07-02T02:22:16;13.00;;;8.60;;
57337;SDS011;43173;50.980;18.204;2023-07-02T02:24:42;14.20;;;8.50;;
57337;SDS011;43173;50.980;18.204;2023-07-02T02:27:08;12.20;;;8.70;;
57337;SDS011;43173;50.980;18.204;2023-07-02T02:29:34;13.60;;;8.80;;
57337;SDS011;43173;50.980;18.204;2023-07-02T02:32:00;15.80;;;8.60;;
57337;SDS011;43173;50.980;18.204;2023-07-02T02:34:26;13.30;;;8.10;;
57337;SDS011;43173;50.980;18.204;2023-07-02T02:36:51;13.70;;;8.20;;
57337;SDS011;43173;50.980;18.204;2023-07-02T02:39:17;15.50;;;8.30;;
57337;SDS011;43173;50.980;18.204;2023-07-02T02:41:43;17.80;;;7.60;;
57337;SDS011;43173;50.980;18.204;2023-07-02T02:44:08;12.20;;;8.50;;
57337;SDS011;43173;50.980;18.204;2023-07-02T02:46:34;11.90;;;7.80;;
57337;SDS011;43173;50.980;18.204;2023-07-02T02:49:00;15.20;;;8.20;;
57337;SDS011;43173;50.980;18.204;2023-07-02T02:51:26;14.10;;;8.40;;
57337;SDS011;43173;50.980;18.204;2023-07-02T02:53:52;11.50;;;8.30;;
57337;SDS011;43173;50.980;18.204;2023-07-02T02:56:17;11.50;;;7.80;;
57337;SDS011;43173;50.980;18.204;2023-07-02T02:58:43;13.40;;;7.70;;
57337;SDS011;43173;50.980;18.204;2023-07-02T03:01:09;12.40;;;8.00;;
57337;SDS011;43173;50.980;18.204;2023-07-02T03:03:39;12.40;;;8.10;;
57337;SDS011;43173;50.980;18.204;2023-07-02T03:06:11;12.20;;;7.90;;
57337;SDS011;43173;50.980;18.204;2023-07-02T03:08:40;12.30;;;7.60;;
57337;SDS011;43173;50.980;18.204;2023-07-02T03:11:06;11.00;;;7.50;;
57337;SDS011;43173;50.980;18.204;2023-07-02T03:13:32;11.20;;;7.40;;
57337;SDS011;43173;50.980;18.204;2023-07-02T03:15:58;11.60;;;8.20;;
57337;SDS011;43173;50.980;18.204;2023-07-02T03:18:24;11.80;;;7.70;;
57337;SDS011;43173;50.980;18.204;2023-07-02T03:20:49;10.50;;;7.70;;
57337;SDS011;43173;50.980;18.204;2023-07-02T03:23:15;13.50;;;8.10;;
57337;SDS011;43173;50.980;18.204;2023-07-02T03:25:41;14.70;;;8.10;;
57337;SDS011;43173;50.980;18.204;2023-07-02T03:28:06;12.60;;;7.70;;
57337;SDS011;43173;50.980;18.204;2023-07-02T03:30:32;10.80;;;7.20;;
57337;SDS011;43173;50.980;18.204;2023-07-02T03:32:58;14.00;;;7.50;;
57337;SDS011;43173;50.980;18.204;2023-07-02T03:35:23;15.00;;;7.70;;
57337;SDS011;43173;50.980;18.204;2023-07-02T03:37:49;14.90;;;7.20;;
57337;SDS011;43173;50.980;18.204;2023-07-02T03:40:15;12.90;;;7.10;;
57337;SDS011;43173;50.980;18.204;2023-07-02T03:42:41;8.60;;;6.30;;
57337;SDS011;43173;50.980;18.204;2023-07-02T03:45:08;10.50;;;6.80;;
57337;SDS011;43173;50.980;18.204;2023-07-02T03:47:34;10.40;;;6.60;;
57337;SDS011;43173;50.980;18.204;2023-07-02T03:50:01;9.70;;;6.10;;
57337;SDS011;43173;50.980;18.204;2023-07-02T03:52:27;11.00;;;6.00;;
57337;SDS011;43173;50.980;18.204;2023-07-02T03:54:52;9.70;;;6.60;;
57337;SDS011;43173;50.980;18.204;2023-07-02T03:57:18;8.70;;;6.10;;
57337;SDS011;43173;50.980;18.204;2023-07-02T03:59:44;10.10;;;5.80;;
57337;SDS011;43173;50.980;18.204;2023-07-02T04:02:10;8.60;;;5.40;;
57337;SDS011;43173;50.980;18.204;2023-07-02T04:04:35;12.50;;;6.40;;
57337;SDS011;43173;50.980;18.204;2023-07-02T04:07:01;10.40;;;6.00;;
57337;SDS011;43173;50.980;18.204;2023-07-02T04:09:26;10.40;;;5.60;;
57337;SDS011;43173;50.980;18.204;2023-07-02T04:11:52;7.50;;;5.10;;
57337;SDS011;43173;50.980;18.204;2023-07-02T04:14:18;7.90;;;4.90;;
57337;SDS011;43173;50.980;18.204;2023-07-02T04:16:44;6.50;;;5.10;;
57337;SDS011;43173;50.980;18.204;2023-07-02T04:19:10;5.90;;;4.30;;
57337;SDS011;43173;50.980;18.204;2023-07-02T04:21:36;8.00;;;4.10;;
57337;SDS011;43173;50.980;18.204;2023-07-02T04:24:01;5.70;;;4.00;;
57337;SDS011;43173;50.980;18.204;2023-07-02T04:26:27;4.10;;;3.10;;
57337;SDS011;43173;50.980;18.204;2023-07-02T04:28:54;6.70;;;3.80;;
57337;SDS011;43173;50.980;18.204;2023-07-02T04:31:20;3.90;;;3.50;;
57337;SDS011;43173;50.980;18.204;2023-07-02T04:33:47;5.00;;;3.70;;
57337;SDS011;43173;50.980;18.204;2023-07-02T04:36:12;6.40;;;3.50;;
57337;SDS011;43173;50.980;18.204;2023-07-02T04:38:38;6.70;;;3.40;;
57337;SDS011;43173;50.980;18.204;2023-07-02T04:41:05;4.00;;;2.80;;
57337;SDS011;43173;50.980;18.204;2023-07-02T04:43:31;6.90;;;3.20;;
57337;SDS011;43173;50.980;18.204;2023-07-02T04:45:58;5.00;;;3.20;;
57337;SDS011;43173;50.980;18.204;2023-07-02T04:48:24;4.30;;;2.60;;
57337;SDS011;43173;50.980;18.204;2023-07-02T04:50:49;5.00;;;3.00;;
57337;SDS011;43173;50.980;18.204;2023-07-02T04:53:15;7.30;;;2.70;;
57337;SDS011;43173;50.980;18.204;2023-07-02T04:55:41;5.00;;;2.80;;
57337;SDS011;43173;50.980;18.204;2023-07-02T04:58:07;6.60;;;3.40;;
57337;SDS011;43173;50.980;18.204;2023-07-02T05:00:33;6.00;;;2.70;;
57337;SDS011;43173;50.980;18.204;2023-07-02T05:02:59;4.50;;;2.60;;
57337;SDS011;43173;50.980;18.204;2023-07-02T05:05:25;4.10;;;2.30;;
57337;SDS011;43173;50.980;18.204;2023-07-02T05:07:50;5.00;;;2.20;;
57337;SDS011;43173;50.980;18.204;2023-07-02T05:10:17;2.80;;;2.30;;
57337;SDS011;43173;50.980;18.204;2023-07-02T05:12:42;3.10;;;2.40;;
57337;SDS011;43173;50.980;18.204;2023-07-02T05:15:09;4.90;;;2.20;;
57337;SDS011;43173;50.980;18.204;2023-07-02T05:17:35;3.30;;;1.90;;
57337;SDS011;43173;50.980;18.204;2023-07-02T05:20:02;2.60;;;2.00;;
57337;SDS011;43173;50.980;18.204;2023-07-02T05:22:30;3.30;;;2.00;;
57337;SDS011;43173;50.980;18.204;2023-07-02T05:24:55;2.70;;;2.00;;
57337;SDS011;43173;50.980;18.204;2023-07-02T05:27:21;3.60;;;1.80;;
57337;SDS011;43173;50.980;18.204;2023-07-02T05:29:47;3.40;;;1.70;;
57337;SDS011;43173;50.980;18.204;2023-07-02T05:32:13;2.30;;;1.40;;
57337;SDS011;43173;50.980;18.204;2023-07-02T05:34:38;3.60;;;1.60;;
57337;SDS011;43173;50.980;18.204;2023-07-02T05:37:05;2.10;;;1.70;;
57337;SDS011;43173;50.980;18.204;2023-07-02T05:39:31;1.80;;;1.30;;
57337;SDS011;43173;50.980;18.204;2023-07-02T05:41:56;1.70;;;1.40;;
57337;SDS011;43173;50.980;18.204;2023-07-02T05:44:22;2.50;;;1.40;;
57337;SDS011;43173;50.980;18.204;2023-07-02T05:46:48;2.30;;;1.60;;
57337;SDS011;43173;50.980;18.204;2023-07-02T05:49:14;2.70;;;1.50;;
57337;SDS011;43173;50.980;18.204;2023-07-02T05:51:39;1.70;;;1.40;;
57337;SDS011;43173;50.980;18.204;2023-07-02T05:54:06;1.30;;;1.20;;
57337;SDS011;43173;50.980;18.204;2023-07-02T05:56:32;3.40;;;1.50;;
57337;SDS011;43173;50.980;18.204;2023-07-02T05:58:58;3.70;;;1.40;;
57337;SDS011;43173;50.980;18.204;2023-07-02T06:01:23;1.70;;;1.50;;
57337;SDS011;43173;50.980;18.204;2023-07-02T06:03:50;1.90;;;1.70;;
57337;SDS011;43173;50.980;18.204;2023-07-02T06:06:17;3.50;;;1.60;;
57337;SDS011;43173;50.980;18.204;2023-07-02T06:08:43;3.10;;;1.70;;
57337;SDS011;43173;50.980;18.204;2023-07-02T06:11:12;3.60;;;1.50;;
57337;SDS011;43173;50.980;18.204;2023-07-02T06:13:39;4.80;;;1.50;;
57337;SDS011;43173;50.980;18.204;2023-07-02T06:16:04;2.90;;;1.60;;
57337;SDS011;43173;50.980;18.204;2023-07-02T06:18:30;2.00;;;1.30;;
57337;SDS011;43173;50.980;18.204;2023-07-02T06:20:55;2.00;;;1.70;;
57337;SDS011;43173;50.980;18.204;2023-07-02T06:23:21;3.70;;;1.60;;
57337;SDS011;43173;50.980;18.204;2023-07-02T06:25:47;1.80;;;1.60;;
57337;SDS011;43173;50.980;18.204;2023-07-02T06:28:13;2.30;;;1.60;;
57337;SDS011;43173;50.980;18.204;2023-07-02T06:30:39;2.60;;;1.50;;
57337;SDS011;43173;50.980;18.204;2023-07-02T06:33:04;4.50;;;1.80;;
57337;SDS011;43173;50.980;18.204;2023-07-02T06:35:30;3.60;;;1.80;;
57337;SDS011;43173;50.980;18.204;2023-07-02T06:37:56;2.20;;;1.70;;
57337;SDS011;43173;50.980;18.204;2023-07-02T06:40:21;3.10;;;1.60;;
57337;SDS011;43173;50.980;18.204;2023-07-02T06:42:50;4.00;;;1.50;;
57337;SDS011;43173;50.980;18.204;2023-07-02T06:45:16;4.50;;;1.40;;
57337;SDS011;43173;50.980;18.204;2023-07-02T06:47:41;3.50;;;1.90;;
57337;SDS011;43173;50.980;18.204;2023-07-02T06:50:07;3.00;;;1.80;;
57337;SDS011;43173;50.980;18.204;2023-07-02T06:52:33;3.00;;;1.70;;
57337;SDS011;43173;50.980;18.204;2023-07-02T06:54:59;2.60;;;1.40;;
57337;SDS011;43173;50.980;18.204;2023-07-02T06:57:24;2.00;;;1.40;;
57337;SDS011;43173;50.980;18.204;2023-07-02T06:59:50;3.90;;;1.70;;
57337;SDS011;43173;50.980;18.204;2023-07-02T07:02:16;2.20;;;1.60;;
57337;SDS011;43173;50.980;18.204;2023-07-02T07:04:42;2.70;;;1.70;;
57337;SDS011;43173;50.980;18.204;2023-07-02T07:07:08;1.70;;;1.60;;
57337;SDS011;43173;50.980;18.204;2023-07-02T07:09:33;3.80;;;1.80;;
57337;SDS011;43173;50.980;18.204;2023-07-02T07:11:59;3.90;;;1.80;;
57337;SDS011;43173;50.980;18.204;2023-07-02T07:14:25;3.40;;;1.80;;
57337;SDS011;43173;50.980;18.204;2023-07-02T07:16:51;2.40;;;1.50;;
57337;SDS011;43173;50.980;18.204;2023-07-02T07:19:16;2.30;;;1.70;;
57337;SDS011;43173;50.980;18.204;2023-07-02T07:21:42;2.40;;;1.60;;
57337;SDS011;43173;50.980;18.204;2023-07-02T07:24:09;2.70;;;1.70;;
57337;SDS011;43173;50.980;18.204;2023-07-02T07:26:35;2.10;;;1.50;;
57337;SDS011;43173;50.980;18.204;2023-07-02T07:29:00;2.70;;;1.90;;
57337;SDS011;43173;50.980;18.204;2023-07-02T07:31:26;3.50;;;2.10;;
57337;SDS011;43173;50.980;18.204;2023-07-02T07:33:52;2.10;;;1.70;;
57337;SDS011;43173;50.980;18.204;2023-07-02T07:36:18;2.30;;;1.80;;
57337;SDS011;43173;50.980;18.204;2023-07-02T07:38:44;2.80;;;1.50;;
57337;SDS011;43173;50.980;18.204;2023-07-02T07:41:10;4.90;;;1.70;;
57337;SDS011;43173;50.980;18.204;2023-07-02T07:43:36;2.30;;;1.80;;
57337;SDS011;43173;50.980;18.204;2023-07-02T07:46:02;4.60;;;1.80;;
57337;SDS011;43173;50.980;18.204;2023-07-02T07:48:28;3.00;;;1.70;;
57337;SDS011;43173;50.980;18.204;2023-07-02T07:50:54;3.30;;;1.90;;
57337;SDS011;43173;50.980;18.204;2023-07-02T07:53:20;2.20;;;1.70;;
57337;SDS011;43173;50.980;18.204;2023-07-02T07:55:46;4.40;;;1.80;;
57337;SDS011;43173;50.980;18.204;2023-07-02T07:58:12;2.00;;;1.80;;
57337;SDS011;43173;50.980;18.204;2023-07-02T08:00:38;1.80;;;1.60;;
57337;SDS011;43173;50.980;18.204;2023-07-02T08:03:03;2.30;;;1.50;;
57337;SDS011;43173;50.980;18.204;2023-07-02T08:05:30;3.00;;;1.80;;
57337;SDS011;43173;50.980;18.204;2023-07-02T08:07:56;2.50;;;1.80;;
57337;SDS011;43173;50.980;18.204;2023-07-02T08:10:23;2.10;;;1.90;;
57337;SDS011;43173;50.980;18.204;2023-07-02T08:12:50;2.10;;;1.90;;
57337;SDS011;43173;50.980;18.204;2023-07-02T08:15:18;3.50;;;1.80;;
57337;SDS011;43173;50.980;18.204;2023-07-02T08:17:43;1.80;;;1.70;;
57337;SDS011;43173;50.980;18.204;2023-07-02T08:20:09;2.20;;;2.00;;
57337;SDS011;43173;50.980;18.204;2023-07-02T08:22:39;2.20;;;1.90;;
57337;SDS011;43173;50.980;18.204;2023-07-02T08:25:06;2.80;;;1.70;;
57337;SDS011;43173;50.980;18.204;2023-07-02T08:27:32;2.10;;;1.90;;
57337;SDS011;43173;50.980;18.204;2023-07-02T08:29:58;3.00;;;1.90;;
57337;SDS011;43173;50.980;18.204;2023-07-02T08:32:23;2.00;;;1.60;;
57337;SDS011;43173;50.980;18.204;2023-07-02T08:34:49;2.30;;;2.00;;
57337;SDS011;43173;50.980;18.204;2023-07-02T08:37:16;3.00;;;1.90;;
57337;SDS011;43173;50.980;18.204;2023-07-02T08:39:42;2.60;;;2.30;;
57337;SDS011;43173;50.980;18.204;2023-07-02T08:42:08;2.50;;;2.30;;
57337;SDS011;43173;50.980;18.204;2023-07-02T08:44:34;3.80;;;2.80;;
57337;SDS011;43173;50.980;18.204;2023-07-02T08:47:01;4.10;;;2.80;;
57337;SDS011;43173;50.980;18.204;2023-07-02T08:49:26;3.80;;;3.30;;
57337;SDS011;43173;50.980;18.204;2023-07-02T08:51:53;2.70;;;2.50;;
57337;SDS011;43173;50.980;18.204;2023-07-02T08:54:19;3.30;;;2.80;;
57337;SDS011;43173;50.980;18.204;2023-07-02T08:56:45;4.60;;;2.80;;
57337;SDS011;43173;50.980;18.204;2023-07-02T08:59:12;2.90;;;2.60;;
57337;SDS011;43173;50.980;18.204;2023-07-02T09:04:23;4.50;;;3.00;;
57337;SDS011;43173;50.980;18.204;2023-07-02T09:14:56;5.60;;;3.30;;
57337;SDS011;43173;50.980;18.204;2023-07-02T09:17:35;3.50;;;2.90;;
57337;SDS011;43173;50.980;18.204;2023-07-02T09:20:03;3.30;;;2.30;;
57337;SDS011;43173;50.980;18.204;2023-07-02T09:22:32;1.90;;;1.70;;
57337;SDS011;43173;50.980;18.204;2023-07-02T09:24:58;2.40;;;2.20;;
57337;SDS011;43173;50.980;18.204;2023-07-02T09:30:11;2.00;;;1.90;;
57337;SDS011;43173;50.980;18.204;2023-07-02T09:32:44;3.10;;;2.20;;
57337;SDS011;43173;50.980;18.204;2023-07-02T09:35:10;2.20;;;1.90;;
57337;SDS011;43173;50.980;18.204;2023-07-02T09:37:36;3.70;;;2.50;;
57337;SDS011;43173;50.980;18.204;2023-07-02T09:40:02;2.80;;;2.30;;
57337;SDS011;43173;50.980;18.204;2023-07-02T09:42:32;2.30;;;2.10;;
57337;SDS011;43173;50.980;18.204;2023-07-02T09:44:59;2.00;;;1.90;;
57337;SDS011;43173;50.980;18.204;2023-07-02T09:47:25;3.20;;;2.20;;
57337;SDS011;43173;50.980;18.204;2023-07-02T09:49:55;3.50;;;1.80;;
57337;SDS011;43173;50.980;18.204;2023-07-02T09:52:24;2.60;;;2.00;;
57337;SDS011;43173;50.980;18.204;2023-07-02T09:54:51;1.60;;;1.50;;
57337;SDS011;43173;50.980;18.204;2023-07-02T09:57:16;4.00;;;2.30;;
57337;SDS011;43173;50.980;18.204;2023-07-02T09:59:42;4.20;;;1.90;;
57337;SDS011;43173;50.980;18.204;2023-07-02T10:02:08;4.90;;;2.00;;
57337;SDS011;43173;50.980;18.204;2023-07-02T10:04:41;2.10;;;1.90;;
57337;SDS011;43173;50.980;18.204;2023-07-02T10:07:08;1.90;;;1.70;;
57337;SDS011;43173;50.980;18.204;2023-07-02T10:09:36;2.30;;;1.90;;
57337;SDS011;43173;50.980;18.204;2023-07-02T10:12:14;1.90;;;1.70;;
57337;SDS011;43173;50.980;18.204;2023-07-02T10:14:43;2.30;;;2.00;;
57337;SDS011;43173;50.980;18.204;2023-07-02T10:17:10;1.90;;;1.60;;
57337;SDS011;43173;50.980;18.204;2023-07-02T10:19:36;3.10;;;2.10;;
57337;SDS011;43173;50.980;18.204;2023-07-02T10:22:02;2.00;;;1.80;;
57337;SDS011;43173;50.980;18.204;2023-07-02T10:24:28;2.40;;;2.20;;
57337;SDS011;43173;50.980;18.204;2023-07-02T10:26:58;2.60;;;2.20;;
57337;SDS011;43173;50.980;18.204;2023-07-02T10:29:25;2.60;;;2.20;;
57337;SDS011;43173;50.980;18.204;2023-07-02T10:31:53;2.10;;;1.80;;
57337;SDS011;43173;50.980;18.204;2023-07-02T10:37:03;2.30;;;2.00;;
57337;SDS011;43173;50.980;18.204;2023-07-02T10:39:29;2.40;;;1.90;;
57337;SDS011;43173;50.980;18.204;2023-07-02T10:44:46;2.70;;;2.10;;
57337;SDS011;43173;50.980;18.204;2023-07-02T10:47:14;3.70;;;1.70;;
57337;SDS011;43173;50.980;18.204;2023-07-02T10:49:40;2.00;;;1.90;;
57337;SDS011;43173;50.980;18.204;2023-07-02T10:52:06;2.10;;;1.90;;
57337;SDS011;43173;50.980;18.204;2023-07-02T10:57:10;2.70;;;1.80;;
57337;SDS011;43173;50.980;18.204;2023-07-02T10:59:38;2.20;;;2.00;;
57337;SDS011;43173;50.980;18.204;2023-07-02T11:02:04;3.70;;;2.10;;
57337;SDS011;43173;50.980;18.204;2023-07-02T11:04:32;1.90;;;1.80;;
57337;SDS011;43173;50.980;18.204;2023-07-02T11:06:59;2.00;;;1.80;;
57337;SDS011;43173;50.980;18.204;2023-07-02T11:21:15;2.50;;;2.30;;
57337;SDS011;43173;50.980;18.204;2023-07-02T11:23:41;2.60;;;2.20;;
57337;SDS011;43173;50.980;18.204;2023-07-02T11:26:07;2.20;;;2.00;;
57337;SDS011;43173;50.980;18.204;2023-07-02T11:28:32;2.30;;;2.10;;
57337;SDS011;43173;50.980;18.204;2023-07-02T11:31:00;2.90;;;2.40;;
57337;SDS011;43173;50.980;18.204;2023-07-02T11:33:37;2.60;;;2.40;;
57337;SDS011;43173;50.980;18.204;2023-07-02T11:36:04;3.30;;;3.00;;
57337;SDS011;43173;50.980;18.204;2023-07-02T11:38:31;3.80;;;2.80;;
57337;SDS011;43173;50.980;18.204;2023-07-02T11:40:58;3.10;;;2.60;;
57337;SDS011;43173;50.980;18.204;2023-07-02T11:43:24;2.70;;;2.40;;
57337;SDS011;43173;50.980;18.204;2023-07-02T11:45:51;2.30;;;2.10;;
57337;SDS011;43173;50.980;18.204;2023-07-02T11:48:17;2.50;;;2.30;;
57337;SDS011;43173;50.980;18.204;2023-07-02T11:50:42;2.60;;;2.40;;
57337;SDS011;43173;50.980;18.204;2023-07-02T11:53:08;2.80;;;2.50;;
57337;SDS011;43173;50.980;18.204;2023-07-02T11:55:34;4.00;;;2.70;;
57337;SDS011;43173;50.980;18.204;2023-07-02T11:57:59;2.50;;;2.30;;
57337;SDS011;43173;50.980;18.204;2023-07-02T12:00:25;2.50;;;2.30;;
57337;SDS011;43173;50.980;18.204;2023-07-02T12:02:52;2.70;;;2.50;;
57337;SDS011;43173;50.980;18.204;2023-07-02T12:05:17;4.10;;;2.30;;
57337;SDS011;43173;50.980;18.204;2023-07-02T12:07:43;2.50;;;2.30;;
57337;SDS011;43173;50.980;18.204;2023-07-02T12:10:09;3.00;;;2.60;;
57337;SDS011;43173;50.980;18.204;2023-07-02T12:12:34;3.90;;;2.60;;
57337;SDS011;43173;50.980;18.204;2023-07-02T12:15:00;2.30;;;2.10;;
57337;SDS011;43173;50.980;18.204;2023-07-02T12:17:25;2.70;;;2.30;;
57337;SDS011;43173;50.980;18.204;2023-07-02T12:19:51;3.60;;;2.50;;
57337;SDS011;43173;50.980;18.204;2023-07-02T12:22:17;3.10;;;2.30;;
57337;SDS011;43173;50.980;18.204;2023-07-02T12:24:43;2.20;;;1.90;;
57337;SDS011;43173;50.980;18.204;2023-07-02T12:27:09;2.80;;;2.50;;
57337;SDS011;43173;50.980;18.204;2023-07-02T12:29:36;2.70;;;2.00;;
57337;SDS011;43173;50.980;18.204;2023-07-02T12:34:32;2.20;;;2.00;;
57337;SDS011;43173;50.980;18.204;2023-07-02T12:36:57;3.20;;;2.10;;
57337;SDS011;43173;50.980;18.204;2023-07-02T12:39:23;1.90;;;1.80;;
57337;SDS011;43173;50.980;18.204;2023-07-02T12:41:49;2.00;;;1.90;;
57337;SDS011;43173;50.980;18.204;2023-07-02T12:44:14;1.90;;;1.70;;
57337;SDS011;43173;50.980;18.204;2023-07-02T12:46:40;2.10;;;1.70;;
57337;SDS011;43173;50.980;18.204;2023-07-02T12:49:06;2.00;;;1.80;;
57337;SDS011;43173;50.980;18.204;2023-07-02T12:51:32;4.20;;;1.90;;
57337;SDS011;43173;50.980;18.204;2023-07-02T12:53:57;1.50;;;1.40;;
57337;SDS011;43173;50.980;18.204;2023-07-02T12:56:23;1.50;;;1.30;;
57337;SDS011;43173;50.980;18.204;2023-07-02T12:58:48;1.30;;;1.20;;
57337;SDS011;43173;50.980;18.204;2023-07-02T13:01:16;1.70;;;1.40;;
57337;SDS011;43173;50.980;18.204;2023-07-02T13:03:46;2.70;;;1.40;;
57337;SDS011;43173;50.980;18.204;2023-07-02T13:06:13;1.50;;;1.30;;
57337;SDS011;43173;50.980;18.204;2023-07-02T13:08:39;3.00;;;1.50;;
57337;SDS011;43173;50.980;18.204;2023-07-02T13:11:05;1.50;;;1.20;;
57337;SDS011;43173;50.980;18.204;2023-07-02T13:13:31;1.40;;;1.30;;
57337;SDS011;43173;50.980;18.204;2023-07-02T13:15:56;1.60;;;1.50;;
57337;SDS011;43173;50.980;18.204;2023-07-02T13:18:23;2.10;;;1.30;;
57337;SDS011;43173;50.980;18.204;2023-07-02T13:20:48;4.10;;;1.60;;
57337;SDS011;43173;50.980;18.204;2023-07-02T13:23:14;1.90;;;1.40;;
57337;SDS011;43173;50.980;18.204;2023-07-02T13:25:41;1.40;;;1.30;;
57337;SDS011;43173;50.980;18.204;2023-07-02T13:28:06;2.40;;;1.20;;
57337;SDS011;43173;50.980;18.204;2023-07-02T13:30:32;2.00;;;1.40;;
57337;SDS011;43173;50.980;18.204;2023-07-02T13:32:57;1.80;;;1.50;;
57337;SDS011;43173;50.980;18.204;2023-07-02T13:35:23;1.30;;;1.20;;
57337;SDS011;43173;50.980;18.204;2023-07-02T13:37:49;2.80;;;1.30;;
57337;SDS011;43173;50.980;18.204;2023-07-02T13:40:14;2.30;;;1.30;;
57337;SDS011;43173;50.980;18.204;2023-07-02T13:42:41;2.80;;;1.40;;
57337;SDS011;43173;50.980;18.204;2023-07-02T13:45:08;1.80;;;1.30;;
57337;SDS011;43173;50.980;18.204;2023-07-02T13:47:35;3.10;;;1.80;;
57337;SDS011;43173;50.980;18.204;2023-07-02T13:50:02;1.80;;;1.40;;
57337;SDS011;43173;50.980;18.204;2023-07-02T13:52:29;1.20;;;1.10;;
57337;SDS011;43173;50.980;18.204;2023-07-02T13:54:55;3.30;;;1.50;;
57337;SDS011;43173;50.980;18.204;2023-07-02T13:57:21;1.90;;;1.20;;
57337;SDS011;43173;50.980;18.204;2023-07-02T13:59:46;3.40;;;1.50;;
57337;SDS011;43173;50.980;18.204;2023-07-02T14:02:12;3.50;;;1.60;;
57337;SDS011;43173;50.980;18.204;2023-07-02T14:04:38;1.80;;;1.40;;
57337;SDS011;43173;50.980;18.204;2023-07-02T14:07:04;1.80;;;1.30;;
57337;SDS011;43173;50.980;18.204;2023-07-02T14:09:30;2.10;;;1.30;;
57337;SDS011;43173;50.980;18.204;2023-07-02T14:11:56;2.50;;;1.40;;
57337;SDS011;43173;50.980;18.204;2023-07-02T14:14:22;4.60;;;1.60;;
57337;SDS011;43173;50.980;18.204;2023-07-02T14:16:48;5.60;;;1.70;;
57337;SDS011;43173;50.980;18.204;2023-07-02T14:19:13;2.50;;;1.40;;
57337;SDS011;43173;50.980;18.204;2023-07-02T14:21:40;1.30;;;1.20;;
57337;SDS011;43173;50.980;18.204;2023-07-02T14:24:06;1.60;;;1.40;;
57337;SDS011;43173;50.980;18.204;2023-07-02T14:26:32;1.60;;;1.50;;
57337;SDS011;43173;50.980;18.204;2023-07-02T14:28:57;1.40;;;1.30;;
57337;SDS011;43173;50.980;18.204;2023-07-02T14:31:23;1.70;;;1.40;;
57337;SDS011;43173;50.980;18.204;2023-07-02T14:33:49;2.00;;;1.40;;
57337;SDS011;43173;50.980;18.204;2023-07-02T14:36:15;3.80;;;1.60;;
57337;SDS011;43173;50.980;18.204;2023-07-02T14:38:41;3.40;;;1.80;;
57337;SDS011;43173;50.980;18.204;2023-07-02T14:41:06;1.60;;;1.50;;
57337;SDS011;43173;50.980;18.204;2023-07-02T14:43:32;3.20;;;1.50;;
57337;SDS011;43173;50.980;18.204;2023-07-02T14:45:59;1.50;;;1.40;;
57337;SDS011;43173;50.980;18.204;2023-07-02T14:48:26;2.30;;;1.80;;
57337;SDS011;43173;50.980;18.204;2023-07-02T14:50:53;2.30;;;1.50;;
57337;SDS011;43173;50.980;18.204;2023-07-02T14:53:20;2.00;;;1.60;;
57337;SDS011;43173;50.980;18.204;2023-07-02T14:55:46;3.50;;;1.70;;
57337;SDS011;43173;50.980;18.204;2023-07-02T14:58:13;2.40;;;1.40;;
57337;SDS011;43173;50.980;18.204;2023-07-02T15:00:46;3.10;;;1.70;;
57337;SDS011;43173;50.980;18.204;2023-07-02T15:03:13;1.80;;;1.50;;